createdAt,value
2023-04-04T00:00:53.878Z,49.10
2023-04-04T00:03:22.230Z,48.86
2023-04-04T00:05:51.571Z,48.72
2023-04-04T00:08:19.694Z,49.39
2023-04-04T00:10:47.973Z,49.51
2023-04-04T00:13:17.555Z,49.60
2023-04-04T00:15:45.635Z,49.38
2023-04-04T00:18:13.754Z,49.55
2023-04-04T00:20:42.086Z,49.48
2023-04-04T00:23:11.059Z,49.17
2023-04-04T00:25:39.410Z,49.71
2023-04-04T00:28:07.466Z,48.75
2023-04-04T00:30:37.967Z,49.77
2023-04-04T00:33:06.383Z,48.95
2023-04-04T00:35:34.622Z,50.04
2023-04-04T00:38:02.672Z,49.36
2023-04-04T00:40:30.712Z,49.73
2023-04-04T00:43:00.388Z,49.95
2023-04-04T00:45:28.655Z,49.92
2023-04-04T00:47:59.544Z,50.22
2023-04-04T00:50:27.801Z,49.65
2023-04-04T00:52:56.147Z,50.80
2023-04-04T00:55:24.459Z,49.80
2023-04-04T00:57:52.921Z,50.42
2023-04-04T01:00:21.627Z,50.29
2023-04-04T01:02:49.855Z,50.45
2023-04-04T01:05:19.956Z,50.74
2023-04-04T01:07:48.125Z,50.46
2023-04-04T01:10:16.283Z,50.95
2023-04-04T01:12:44.714Z,50.67
2023-04-04T01:15:13.128Z,50.83
2023-04-04T01:17:41.945Z,50.33
2023-04-04T01:20:15.693Z,50.32
2023-04-04T01:22:51.473Z,50.99
2023-04-04T01:25:27.013Z,50.93
2023-04-04T01:27:58.594Z,50.32
2023-04-04T01:30:29.772Z,50.63
2023-04-04T01:33:03.169Z,50.70
2023-04-04T01:35:42.329Z,50.09
2023-04-04T01:38:22.154Z,50.83
2023-04-04T01:40:58.620Z,51.07
2023-04-04T01:43:27.630Z,50.56
2023-04-04T01:45:55.706Z,50.63
2023-04-04T01:48:23.948Z,50.70
2023-04-04T01:50:55.413Z,51.20
2023-04-04T01:53:25.681Z,51.27
2023-04-04T01:55:55.898Z,50.91
2023-04-04T01:58:24.379Z,51.24
2023-04-04T02:00:52.707Z,50.82
2023-04-04T02:03:20.801Z,51.36
2023-04-04T02:05:49.297Z,51.04
2023-04-04T02:08:17.860Z,50.71
2023-04-04T02:10:53.948Z,50.97
2023-04-04T02:13:22.316Z,50.28
2023-04-04T02:15:52.543Z,50.06
2023-04-04T02:18:20.867Z,50.38
2023-04-04T02:20:55.811Z,50.65
2023-04-04T02:23:23.973Z,50.67
2023-04-04T02:25:52.496Z,50.51
2023-04-04T02:28:22.571Z,51.07
2023-04-04T02:30:50.747Z,51.15
2023-04-04T02:33:24.988Z,50.50
2023-04-04T02:35:53.679Z,50.70
2023-04-04T02:38:21.673Z,50.82
2023-04-04T02:40:50.333Z,50.63
2023-04-04T02:43:18.396Z,51.03
2023-04-04T02:45:50.634Z,51.10
2023-04-04T02:48:25.650Z,50.79
2023-04-04T02:50:55.751Z,50.67
2023-04-04T02:53:23.825Z,50.86
2023-04-04T02:55:54.526Z,51.19
2023-04-04T02:58:22.672Z,51.27
2023-04-04T03:00:56.986Z,51.09
2023-04-04T03:03:29.673Z,51.37
2023-04-04T03:05:59.422Z,50.63
2023-04-04T03:08:28.807Z,50.99
2023-04-04T03:10:59.711Z,50.90
2023-04-04T03:13:28.290Z,50.81
2023-04-04T03:16:02.700Z,50.54
2023-04-04T03:18:34.646Z,50.65
2023-04-04T03:21:02.952Z,50.56
2023-04-04T03:23:30.968Z,50.68
2023-04-04T03:25:59.705Z,50.39
2023-04-04T03:28:27.745Z,51.31
2023-04-04T03:30:55.768Z,51.08
2023-04-04T03:33:25.688Z,51.19
2023-04-04T03:35:53.690Z,50.93
2023-04-04T03:38:21.783Z,50.84
2023-04-04T03:40:49.905Z,50.59
2023-04-04T03:43:18.006Z,50.60
2023-04-04T03:45:47.508Z,50.62
2023-04-04T03:48:15.707Z,50.65
2023-04-04T03:50:45.117Z,50.67
2023-04-04T03:53:13.544Z,51.30
2023-04-04T03:55:42.974Z,51.12
2023-04-04T03:58:11.138Z,51.03
2023-04-04T04:00:39.287Z,50.46
2023-04-04T04:03:07.525Z,50.92
2023-04-04T04:05:35.655Z,50.20
2023-04-04T04:08:06.047Z,49.98
2023-04-04T04:10:34.818Z,50.46
2023-04-04T04:13:02.886Z,50.81
2023-04-04T04:15:31.496Z,50.72
2023-04-04T04:18:01.670Z,50.84
2023-04-04T04:20:30.140Z,50.35
2023-04-04T04:22:58.245Z,50.23
2023-04-04T04:25:27.640Z,50.60
2023-04-04T04:28:03.764Z,50.86
2023-04-04T04:30:32.678Z,50.85
2023-04-04T04:33:01.053Z,50.82
2023-04-04T04:35:38.051Z,50.23
2023-04-04T04:38:06.712Z,50.87
2023-04-04T04:40:36.668Z,50.83
2023-04-04T04:43:14.003Z,50.59
2023-04-04T04:45:43.207Z,50.90
2023-04-04T04:48:13.006Z,50.76
2023-04-04T04:50:47.050Z,51.06
2023-04-04T04:53:18.941Z,51.36
2023-04-04T04:55:52.169Z,51.35
2023-04-04T04:58:22.594Z,51.20
2023-04-04T05:00:57.835Z,51.20
2023-04-04T05:03:29.636Z,51.11
2023-04-04T05:05:59.296Z,51.25
2023-04-04T05:08:30.680Z,50.94
2023-04-04T05:11:06.998Z,50.76
2023-04-04T05:13:36.175Z,50.58
2023-04-04T05:16:04.764Z,51.71
2023-04-04T05:18:34.080Z,51.27
2023-04-04T05:21:02.818Z,51.44
2023-04-04T05:23:31.720Z,50.86
2023-04-04T05:25:59.852Z,51.72
2023-04-04T05:28:34.656Z,51.47
2023-04-04T05:31:05.208Z,51.21
2023-04-04T05:33:36.431Z,51.23
2023-04-04T05:36:13.783Z,51.22
2023-04-04T05:38:47.921Z,50.78
2023-04-04T05:41:19.428Z,50.94
2023-04-04T05:43:50.268Z,51.11
2023-04-04T05:46:23.163Z,51.04
2023-04-04T05:48:54.027Z,51.15
2023-04-04T05:51:22.432Z,50.31
2023-04-04T05:54:12.309Z,50.97
2023-04-04T05:56:41.186Z,50.61
2023-04-04T05:59:18.822Z,51.07
2023-04-04T06:01:55.818Z,51.31
2023-04-04T06:04:24.362Z,51.37
2023-04-04T06:06:54.647Z,51.26
2023-04-04T06:09:23.252Z,51.34
2023-04-04T06:11:51.560Z,51.69
2023-04-04T06:14:21.072Z,51.72
2023-04-04T06:16:49.994Z,51.93
2023-04-04T06:19:19.202Z,51.62
2023-04-04T06:21:48.576Z,51.67
2023-04-04T06:24:16.933Z,51.67
2023-04-04T06:26:45.497Z,51.95
2023-04-04T06:29:14.187Z,52.16
2023-04-04T06:31:46.600Z,52.29
2023-04-04T06:34:22.791Z,52.25
2023-04-04T06:36:56.776Z,51.93
2023-04-04T06:39:31.477Z,51.87
2023-04-04T06:42:06.318Z,51.70
2023-04-04T06:44:37.222Z,51.79
2023-04-04T06:47:07.851Z,51.32
2023-04-04T06:49:37.485Z,51.39
2023-04-04T06:52:06.378Z,51.77
2023-04-04T06:54:34.635Z,51.36
2023-04-04T06:57:03.102Z,50.87
2023-04-04T06:59:31.298Z,50.78
2023-04-04T07:01:59.549Z,50.45
2023-04-04T07:04:32.749Z,51.16
2023-04-04T07:07:01.709Z,50.39
2023-04-04T07:09:33.277Z,50.35
2023-04-04T07:12:03.089Z,50.55
2023-04-04T07:14:32.830Z,50.20
2023-04-04T07:17:03.685Z,49.63
2023-04-04T07:19:37.736Z,49.90
2023-04-04T07:22:06.144Z,50.05
2023-04-04T07:24:35.441Z,50.00
2023-04-04T07:27:04.349Z,49.68
2023-04-04T07:29:32.822Z,49.73
2023-04-04T07:32:00.985Z,49.20
2023-04-04T07:34:29.812Z,48.47
2023-04-04T07:36:59.485Z,48.25
2023-04-04T07:39:27.848Z,48.17
2023-04-04T07:41:56.162Z,48.30
2023-04-04T07:44:24.672Z,48.41
2023-04-04T07:47:06.288Z,47.58
2023-04-04T07:49:37.250Z,47.68
2023-04-04T07:52:08.940Z,46.93
2023-04-04T07:54:37.929Z,47.09
2023-04-04T07:57:06.187Z,46.51
2023-04-04T07:59:34.429Z,46.83
2023-04-04T08:02:03.334Z,47.55
2023-04-04T08:04:31.954Z,46.24
2023-04-04T08:07:00.134Z,45.39
2023-04-04T08:09:34.147Z,44.59
2023-04-04T08:12:02.287Z,45.04
2023-04-04T08:14:31.407Z,44.88
2023-04-04T08:16:59.572Z,45.08
2023-04-04T08:19:28.421Z,44.44
2023-04-04T08:21:56.720Z,44.79
2023-04-04T08:24:26.466Z,44.66
2023-04-04T08:27:05.019Z,44.70
2023-04-04T08:29:34.378Z,44.62
2023-04-04T08:32:02.611Z,44.12
2023-04-04T08:34:34.601Z,43.80
2023-04-04T08:37:03.174Z,44.27
2023-04-04T08:39:31.565Z,43.24
2023-04-04T08:42:07.478Z,43.76
2023-04-04T08:44:37.899Z,42.80
2023-04-04T08:47:09.448Z,42.54
2023-04-04T08:49:41.589Z,41.82
2023-04-04T08:52:12.656Z,42.45
2023-04-04T08:54:43.339Z,42.17
2023-04-04T08:57:38.979Z,41.87
2023-04-04T09:00:09.813Z,43.16
2023-04-04T09:02:46.524Z,41.26
2023-04-04T09:05:15.711Z,41.93
2023-04-04T09:07:44.860Z,41.65
2023-04-04T09:10:13.633Z,40.86
2023-04-04T09:12:47.709Z,40.92
2023-04-04T09:15:18.807Z,41.12
2023-04-04T09:17:47.195Z,41.64
2023-04-04T09:20:37.090Z,40.36
2023-04-04T09:23:08.127Z,39.98
2023-04-04T09:25:37.831Z,39.98
2023-04-04T09:28:07.674Z,40.51
2023-04-04T09:30:36.593Z,39.51
2023-04-04T09:33:07.024Z,39.23
2023-04-04T09:35:38.300Z,37.52
2023-04-04T09:38:08.354Z,37.29
2023-04-04T09:40:38.528Z,37.19
2023-04-04T09:43:10.503Z,38.66
2023-04-04T09:45:43.143Z,39.19
2023-04-04T09:48:12.548Z,38.84
2023-04-04T09:50:48.263Z,39.11
2023-04-04T09:53:19.525Z,38.59
2023-04-04T09:55:52.736Z,37.88
2023-04-04T09:58:27.049Z,37.49
2023-04-04T10:03:54.591Z,38.17
2023-04-04T10:06:23.915Z,36.68
2023-04-04T10:08:52.532Z,37.73
2023-04-04T10:11:32.325Z,37.22
2023-04-04T10:14:04.011Z,38.22
2023-04-04T10:16:37.627Z,38.61
2023-04-04T10:19:08.704Z,37.96
2023-04-04T10:21:39.899Z,38.87
2023-04-04T10:24:10.085Z,38.02
2023-04-04T10:26:39.506Z,38.26
2023-04-04T10:29:09.210Z,39.59
2023-04-04T10:31:43.110Z,39.05
2023-04-04T10:34:21.570Z,37.18
2023-04-04T10:36:54.874Z,36.97
2023-04-04T10:39:27.523Z,36.90
2023-04-04T10:41:57.727Z,36.61
2023-04-04T10:44:38.934Z,36.67
2023-04-04T10:47:16.220Z,37.08
2023-04-04T10:49:47.380Z,36.26
2023-04-04T10:52:17.808Z,37.48
2023-04-04T10:54:48.863Z,36.82
2023-04-04T10:57:18.323Z,36.73
2023-04-04T11:00:06.075Z,36.77
2023-04-04T11:02:54.896Z,37.20
2023-04-04T11:05:26.657Z,37.61
2023-04-04T11:10:42.841Z,35.69
2023-04-04T11:13:17.126Z,37.59
2023-04-04T11:15:58.761Z,37.75
2023-04-04T11:18:47.901Z,36.08
2023-04-04T11:21:18.611Z,35.53
2023-04-04T11:24:24.129Z,36.30
2023-04-04T11:26:56.381Z,36.95
2023-04-04T11:29:54.765Z,37.52
2023-04-04T11:32:56.565Z,37.70
2023-04-04T11:35:37.927Z,36.96
2023-04-04T11:38:15.981Z,37.84
2023-04-04T11:40:56.553Z,37.37
2023-04-04T11:43:26.796Z,37.57
2023-04-04T11:46:10.289Z,38.36
2023-04-04T11:48:40.473Z,36.53
2023-04-04T11:51:09.512Z,37.45
2023-04-04T11:53:38.307Z,37.58
2023-04-04T11:56:07.634Z,36.68
2023-04-04T11:58:37.000Z,37.18
2023-04-04T12:01:06.603Z,36.87
2023-04-04T12:03:37.045Z,36.96
2023-04-04T12:06:06.015Z,38.16
2023-04-04T12:08:34.630Z,37.60
2023-04-04T12:11:09.091Z,36.76
2023-04-04T12:13:44.576Z,36.69
2023-04-04T12:16:13.974Z,36.94
2023-04-04T12:18:42.071Z,36.07
2023-04-04T12:21:10.304Z,36.09
2023-04-04T12:23:38.469Z,36.67
2023-04-04T12:26:07.121Z,36.60
2023-04-04T12:28:35.866Z,36.67
2023-04-04T12:31:05.697Z,36.94
2023-04-04T12:33:35.707Z,37.19
2023-04-04T12:36:05.212Z,37.32
2023-04-04T12:38:33.777Z,36.73
2023-04-04T12:41:01.789Z,36.18
2023-04-04T12:43:30.491Z,34.62
2023-04-04T12:45:59.410Z,35.08
2023-04-04T12:48:30.050Z,35.49
2023-04-04T12:51:01.862Z,35.80
2023-04-04T12:53:32.916Z,36.37
2023-04-04T12:56:05.133Z,36.05
2023-04-04T12:58:35.904Z,35.28
2023-04-04T13:01:07.075Z,35.09
2023-04-04T13:03:37.887Z,35.90
2023-04-04T13:06:15.457Z,35.60
2023-04-04T13:08:54.298Z,34.60
2023-04-04T13:11:23.289Z,35.11
2023-04-04T13:14:06.301Z,35.40
2023-04-04T13:16:36.965Z,35.29
2023-04-04T13:19:11.872Z,34.95
2023-04-04T13:21:42.799Z,35.11
2023-04-04T13:24:37.046Z,35.87
2023-04-04T13:27:06.522Z,35.99
2023-04-04T13:29:35.121Z,35.95
2023-04-04T13:32:04.844Z,35.82
2023-04-04T13:34:33.874Z,35.96
2023-04-04T13:37:04.474Z,35.22
2023-04-04T13:39:33.064Z,35.10
2023-04-04T13:42:02.086Z,36.00
2023-04-04T13:44:30.523Z,35.40
2023-04-04T13:46:59.273Z,34.78
2023-04-04T13:49:27.477Z,34.92
2023-04-04T13:51:55.689Z,36.17
2023-04-04T13:54:25.140Z,36.19
2023-04-04T13:56:54.746Z,34.73
2023-04-04T13:59:24.000Z,34.83
2023-04-04T14:01:52.211Z,34.61
2023-04-04T14:04:23.936Z,34.79
2023-04-04T14:06:52.627Z,35.27
2023-04-04T14:09:20.833Z,34.99
2023-04-04T14:11:50.613Z,34.09
2023-04-04T14:14:19.495Z,34.71
2023-04-04T14:16:47.620Z,35.22
2023-04-04T14:19:16.371Z,35.05
2023-04-04T14:21:44.697Z,35.15
2023-04-04T14:24:13.175Z,34.89
2023-04-04T14:26:41.597Z,34.07
2023-04-04T14:29:11.379Z,34.21
2023-04-04T14:31:39.447Z,34.63
2023-04-04T14:34:07.713Z,35.91
2023-04-04T14:36:36.529Z,35.25
2023-04-04T14:39:05.350Z,35.04
2023-04-04T14:41:33.429Z,34.92
2023-04-04T14:44:02.239Z,34.65
2023-04-04T14:46:33.850Z,34.85
2023-04-04T14:49:03.329Z,34.74
2023-04-04T14:51:32.213Z,34.23
2023-04-04T14:54:00.578Z,34.80
2023-04-04T14:56:28.984Z,35.16
2023-04-04T14:58:57.755Z,34.90
2023-04-04T15:01:26.521Z,34.95
2023-04-04T15:03:56.821Z,34.68
2023-04-04T15:06:24.930Z,34.96
2023-04-04T15:08:53.210Z,34.77
2023-04-04T15:11:21.890Z,35.17
2023-04-04T15:13:49.896Z,34.85
2023-04-04T15:16:18.207Z,36.05
2023-04-04T15:18:46.567Z,35.50
2023-04-04T15:21:16.371Z,35.86
2023-04-04T15:23:44.570Z,35.23
2023-04-04T15:26:12.736Z,36.03
2023-04-04T15:28:40.967Z,35.56
2023-04-04T15:31:09.538Z,35.76
2023-04-04T15:33:38.118Z,35.69
2023-04-04T15:36:06.822Z,35.67
2023-04-04T15:38:36.275Z,35.82
2023-04-04T15:41:09.367Z,35.70
2023-04-04T15:43:38.120Z,35.67
2023-04-04T15:46:06.990Z,35.80
2023-04-04T15:48:35.265Z,35.70
2023-04-04T15:51:03.796Z,35.00
2023-04-04T15:53:33.265Z,35.27
2023-04-04T15:56:02.895Z,37.11
2023-04-04T15:58:31.333Z,36.18
2023-04-04T16:00:59.807Z,36.00
2023-04-04T16:03:28.115Z,36.56
2023-04-04T16:05:56.756Z,35.36
2023-04-04T16:08:25.118Z,35.04
2023-04-04T16:10:53.317Z,35.36
2023-04-04T16:13:22.745Z,35.71
2023-04-04T16:15:50.893Z,36.39
2023-04-04T16:18:19.046Z,36.18
2023-04-04T16:20:47.445Z,37.58
2023-04-04T16:23:15.727Z,37.16
2023-04-04T16:25:44.855Z,36.88
2023-04-04T16:28:12.885Z,37.41
2023-04-04T16:30:42.739Z,37.77
2023-04-04T16:33:11.157Z,37.44
2023-04-04T16:35:39.802Z,36.70
2023-04-04T16:38:08.745Z,37.64
2023-04-04T16:40:37.078Z,36.87
2023-04-04T16:43:05.174Z,37.16
2023-04-04T16:45:33.820Z,37.00
2023-04-04T16:48:03.662Z,37.02
2023-04-04T16:50:31.830Z,36.85
2023-04-04T16:53:03.405Z,37.28
2023-04-04T16:55:34.816Z,37.12
2023-04-04T16:58:07.820Z,38.62
2023-04-04T17:00:35.945Z,38.23
2023-04-04T17:03:06.502Z,38.68
2023-04-04T17:05:34.579Z,38.59
2023-04-04T17:08:02.707Z,38.19
2023-04-04T17:10:31.411Z,37.96
2023-04-04T17:12:59.495Z,37.90
2023-04-04T17:15:28.328Z,37.48
2023-04-04T17:17:56.387Z,38.13
2023-04-04T17:20:27.263Z,38.25
2023-04-04T17:22:56.434Z,39.22
2023-04-04T17:25:28.846Z,39.30
2023-04-04T17:27:56.915Z,38.96
2023-04-04T17:30:25.041Z,39.13
2023-04-04T17:32:54.463Z,39.75
2023-04-04T17:35:22.731Z,39.80
2023-04-04T17:37:53.157Z,39.40
2023-04-04T17:40:21.676Z,39.90
2023-04-04T17:42:49.941Z,39.64
2023-04-04T17:45:19.221Z,39.53
2023-04-04T17:47:48.168Z,39.80
2023-04-04T17:50:16.334Z,40.02
2023-04-04T17:52:44.411Z,40.01
2023-04-04T17:55:14.508Z,40.50
2023-04-04T17:57:44.914Z,40.85
2023-04-04T18:00:15.849Z,40.93
2023-04-04T18:02:44.142Z,41.23
2023-04-04T18:05:13.323Z,41.41
2023-04-04T18:07:41.764Z,41.13
2023-04-04T18:10:11.164Z,41.84
2023-04-04T18:12:41.291Z,41.69
2023-04-04T18:15:10.819Z,41.21
2023-04-04T18:17:39.639Z,41.16
2023-04-04T18:20:09.486Z,41.38
2023-04-04T18:22:37.703Z,41.67
2023-04-04T18:25:07.148Z,41.67
2023-04-04T18:27:35.182Z,41.73
2023-04-04T18:30:06.244Z,41.61
2023-04-04T18:32:34.309Z,41.75
2023-04-04T18:35:03.813Z,42.02
2023-04-04T18:37:31.920Z,41.84
2023-04-04T18:40:00.062Z,42.12
2023-04-04T18:42:28.564Z,41.89
2023-04-04T18:44:57.227Z,41.74
2023-04-04T18:47:27.118Z,41.99
2023-04-04T18:49:55.557Z,42.20
2023-04-04T18:52:23.623Z,42.59
2023-04-04T18:54:54.529Z,41.90
2023-04-04T18:57:22.941Z,42.52
2023-04-04T18:59:53.608Z,42.44
2023-04-04T19:02:22.254Z,41.97
2023-04-04T19:04:55.409Z,42.19
2023-04-04T19:07:28.288Z,42.54
2023-04-04T19:09:57.469Z,42.11
2023-04-04T19:12:25.770Z,42.79
2023-04-04T19:14:53.933Z,42.08
2023-04-04T19:17:22.095Z,43.15
2023-04-04T19:19:54.653Z,42.50
2023-04-04T19:22:23.290Z,42.93
2023-04-04T19:24:51.659Z,42.34
2023-04-04T19:27:20.100Z,42.84
2023-04-04T19:29:50.184Z,42.42
2023-04-04T19:32:20.304Z,43.08
2023-04-04T19:34:49.365Z,42.97
2023-04-04T19:37:19.951Z,42.84
2023-04-04T19:39:48.367Z,43.86
2023-04-04T19:42:19.007Z,43.03
2023-04-04T19:44:47.403Z,43.20
2023-04-04T19:47:20.628Z,42.71
2023-04-04T19:49:53.017Z,42.34
2023-04-04T19:52:24.972Z,43.15
2023-04-04T19:54:53.376Z,43.09
2023-04-04T19:57:23.368Z,43.04
2023-04-04T20:00:04.935Z,43.00
2023-04-04T20:02:56.813Z,43.23
2023-04-04T20:06:05.952Z,44.05
2023-04-04T20:08:41.190Z,43.56
2023-04-04T20:11:10.065Z,44.05
2023-04-04T20:13:40.389Z,43.81
2023-04-04T20:16:11.486Z,44.29
2023-04-04T20:18:43.484Z,43.88
2023-04-04T20:21:15.272Z,43.87
2023-04-04T20:23:52.672Z,44.28
2023-04-04T20:26:48.236Z,44.07
2023-04-04T20:29:19.019Z,44.15
2023-04-04T20:31:50.279Z,44.96
2023-04-04T20:34:41.758Z,44.94
2023-04-04T20:37:16.114Z,44.15
2023-04-04T20:39:50.728Z,44.05
2023-04-04T20:42:44.548Z,45.00
2023-04-04T20:45:42.624Z,44.92
2023-04-04T20:48:37.802Z,44.83
2023-04-04T20:51:29.468Z,44.24
2023-04-04T20:54:00.010Z,45.47
2023-04-04T20:56:55.206Z,45.71
2023-04-04T20:59:40.465Z,45.79
2023-04-04T21:02:12.037Z,44.86
2023-04-04T21:04:41.845Z,45.80
2023-04-04T21:07:10.007Z,45.19
2023-04-04T21:09:38.005Z,44.87
2023-04-04T21:12:08.161Z,44.87
2023-04-04T21:14:37.514Z,45.44
2023-04-04T21:17:07.723Z,45.57
2023-04-04T21:19:35.934Z,45.36
2023-04-04T21:22:06.702Z,45.59
2023-04-04T21:24:36.915Z,44.83
2023-04-04T21:27:09.420Z,45.65
2023-04-04T21:29:37.526Z,44.82
2023-04-04T21:32:07.980Z,44.93
2023-04-04T21:34:36.278Z,44.92
2023-04-04T21:37:07.241Z,46.24
2023-04-04T21:39:37.703Z,45.41
2023-04-04T21:42:08.805Z,45.24
2023-04-04T21:44:39.085Z,45.60
2023-04-04T21:47:07.050Z,44.54
2023-04-04T21:49:35.051Z,44.88
2023-04-04T21:52:03.116Z,44.45
2023-04-04T21:54:31.216Z,45.32
2023-04-04T21:56:59.369Z,45.14
2023-04-04T21:59:27.425Z,44.55
2023-04-04T22:01:56.855Z,44.75
2023-04-04T22:04:25.058Z,44.88
2023-04-04T22:06:53.129Z,46.11
2023-04-04T22:09:22.581Z,46.35
2023-04-04T22:11:50.697Z,45.11
2023-04-04T22:14:22.789Z,46.03
2023-04-04T22:16:50.836Z,46.10
2023-04-04T22:19:23.447Z,46.08
2023-04-04T22:21:53.938Z,46.65
2023-04-04T22:24:22.919Z,46.45
2023-04-04T22:26:51.055Z,45.33
2023-04-04T22:29:19.112Z,46.22
2023-04-04T22:31:47.242Z,45.94
2023-04-04T22:34:15.721Z,45.74
2023-04-04T22:36:45.240Z,45.34
2023-04-04T22:39:15.599Z,44.61
2023-04-04T22:41:43.787Z,45.63
2023-04-04T22:44:11.891Z,45.95
2023-04-04T22:46:39.931Z,45.50
2023-04-04T22:49:08.800Z,46.55
2023-04-04T22:51:43.718Z,45.95
2023-04-04T22:54:15.693Z,44.75
2023-04-04T22:56:43.947Z,46.72
2023-04-04T22:59:12.227Z,46.39
2023-04-04T23:01:40.571Z,46.01
2023-04-04T23:04:08.746Z,46.54
2023-04-04T23:06:38.317Z,47.13
2023-04-04T23:09:07.636Z,46.75
2023-04-04T23:11:38.468Z,47.17
2023-04-04T23:14:09.092Z,47.28
2023-04-04T23:16:38.100Z,47.66
2023-04-04T23:19:06.211Z,47.38
2023-04-04T23:21:34.453Z,47.21
2023-04-04T23:24:02.513Z,46.78
2023-04-04T23:26:31.185Z,47.81
2023-04-04T23:29:01.483Z,47.40
2023-04-04T23:31:29.845Z,47.19
2023-04-04T23:33:57.995Z,47.22
2023-04-04T23:36:26.041Z,46.99
2023-04-04T23:38:54.179Z,46.79
2023-04-04T23:41:22.206Z,47.02
2023-04-04T23:43:50.374Z,47.49
2023-04-04T23:46:21.399Z,47.18
2023-04-04T23:48:49.499Z,47.19
2023-04-04T23:51:17.595Z,48.00
2023-04-04T23:53:45.672Z,47.22
2023-04-04T23:56:13.700Z,47.45
2023-04-04T23:58:41.953Z,47.14
